createdAt,value
2023-01-29T00:02:09.587Z,15.25
2023-01-29T00:04:38.975Z,14.40
2023-01-29T00:07:08.565Z,15.75
2023-01-29T00:09:35.334Z,19.30
2023-01-29T00:12:09.022Z,14.63
2023-01-29T00:17:02.373Z,15.10
2023-01-29T00:19:29.032Z,14.40
2023-01-29T00:21:56.181Z,14.10
2023-01-29T00:24:23.066Z,16.17
2023-01-29T00:26:50.183Z,14.32
2023-01-29T00:29:17.878Z,14.60
2023-01-29T00:31:45.524Z,16.10
2023-01-29T00:34:12.274Z,16.67
2023-01-29T00:36:39.096Z,17.25
2023-01-29T00:39:17.778Z,15.55
2023-01-29T00:42:23.024Z,14.65
2023-01-29T00:44:58.479Z,15.77
2023-01-29T00:47:31.357Z,17.42
2023-01-29T00:50:00.245Z,20.85
2023-01-29T00:52:27.293Z,20.10
2023-01-29T00:54:59.246Z,21.20
2023-01-29T00:57:30.321Z,19.95
2023-01-29T00:59:57.008Z,19.83
2023-01-29T01:02:42.398Z,20.63
2023-01-29T01:05:14.097Z,21.55
2023-01-29T01:07:41.257Z,16.50
2023-01-29T01:10:21.932Z,17.33
2023-01-29T01:12:53.435Z,19.25
2023-01-29T01:15:22.880Z,16.23
2023-01-29T01:17:53.576Z,22.75
2023-01-29T01:20:20.394Z,17.85
2023-01-29T01:22:47.147Z,19.48
2023-01-29T01:25:17.598Z,20.23
2023-01-29T01:27:44.519Z,16.67
2023-01-29T01:30:16.535Z,22.15
2023-01-29T01:32:43.663Z,17.67
2023-01-29T01:35:14.778Z,17.30
2023-01-29T01:37:42.006Z,16.30
2023-01-29T01:40:19.930Z,18.17
2023-01-29T01:42:53.804Z,18.85
2023-01-29T01:45:34.310Z,18.42
2023-01-29T01:48:07.013Z,15.48
2023-01-29T01:50:46.647Z,20.67
2023-01-29T01:53:16.803Z,20.48
2023-01-29T01:55:52.512Z,17.27
2023-01-29T01:58:27.934Z,18.13
2023-01-29T02:00:57.581Z,18.48
2023-01-29T02:03:44.874Z,22.30
2023-01-29T02:06:30.354Z,19.48
2023-01-29T02:09:29.127Z,17.52
2023-01-29T02:11:58.164Z,19.85
2023-01-29T02:14:25.349Z,19.23
2023-01-29T02:16:54.556Z,19.88
2023-01-29T02:19:36.994Z,20.05
2023-01-29T02:22:20.362Z,22.63
2023-01-29T02:25:20.637Z,22.08
2023-01-29T02:28:13.983Z,21.02
2023-01-29T02:30:58.821Z,24.03
2023-01-29T02:33:36.783Z,19.08
2023-01-29T02:36:10.182Z,22.80
2023-01-29T02:39:01.807Z,20.90
2023-01-29T02:41:37.264Z,20.83
2023-01-29T02:44:16.769Z,20.15
2023-01-29T02:46:48.231Z,21.83
2023-01-29T02:49:46.315Z,20.58
2023-01-29T02:52:25.995Z,18.13
2023-01-29T02:55:04.807Z,22.80
2023-01-29T02:57:37.423Z,18.77
2023-01-29T03:00:22.174Z,20.30
2023-01-29T03:02:55.341Z,19.60
2023-01-29T03:05:30.918Z,19.13
2023-01-29T03:08:04.149Z,19.00
2023-01-29T03:10:51.066Z,20.80
2023-01-29T03:13:26.272Z,23.13
2023-01-29T03:16:01.567Z,19.00
2023-01-29T03:18:40.505Z,20.98
2023-01-29T03:21:31.319Z,21.20
2023-01-29T03:24:18.432Z,23.27
2023-01-29T03:27:04.063Z,21.15
2023-01-29T03:29:54.540Z,21.35
2023-01-29T03:32:26.485Z,21.73
2023-01-29T03:34:58.679Z,17.13
2023-01-29T03:37:45.828Z,19.27
2023-01-29T03:40:13.762Z,18.85
2023-01-29T03:43:14.867Z,22.15
2023-01-29T03:45:47.425Z,20.85
2023-01-29T03:48:32.671Z,18.88
2023-01-29T03:51:17.453Z,21.05
2023-01-29T03:54:12.398Z,22.08
2023-01-29T03:57:11.462Z,24.30
2023-01-29T03:59:48.527Z,21.85
2023-01-29T04:02:30.250Z,24.98
2023-01-29T04:05:05.049Z,24.95
2023-01-29T04:07:33.422Z,23.42
2023-01-29T04:10:11.497Z,25.80
2023-01-29T04:12:52.405Z,24.13
2023-01-29T04:15:21.546Z,24.05
2023-01-29T04:17:52.563Z,24.15
2023-01-29T04:20:23.510Z,23.73
2023-01-29T04:22:51.748Z,26.27
2023-01-29T04:25:28.933Z,24.20
2023-01-29T04:28:08.608Z,21.30
2023-01-29T04:30:39.976Z,19.70
2023-01-29T04:33:19.546Z,20.73
2023-01-29T04:36:00.160Z,19.77
2023-01-29T04:38:56.221Z,20.92
2023-01-29T04:41:34.077Z,20.98
2023-01-29T04:44:41.865Z,20.63
2023-01-29T04:47:27.577Z,20.42
2023-01-29T04:50:19.000Z,21.40
2023-01-29T04:53:14.341Z,17.77
2023-01-29T04:55:52.868Z,24.67
2023-01-29T04:58:31.980Z,19.80
2023-01-29T05:01:00.782Z,19.27
2023-01-29T05:03:32.621Z,23.52
2023-01-29T05:06:01.623Z,25.73
2023-01-29T05:08:32.636Z,22.13
2023-01-29T05:11:01.805Z,19.65
2023-01-29T05:13:31.270Z,20.90
2023-01-29T05:16:07.529Z,20.60
2023-01-29T05:18:34.941Z,20.55
2023-01-29T05:21:05.188Z,19.33
2023-01-29T05:23:31.973Z,23.88
2023-01-29T05:25:58.847Z,18.85
2023-01-29T05:28:25.613Z,18.02
2023-01-29T05:30:54.851Z,20.08
2023-01-29T05:33:26.948Z,23.55
2023-01-29T05:35:54.616Z,20.63
2023-01-29T05:38:21.745Z,20.15
2023-01-29T05:40:48.716Z,20.75
2023-01-29T05:43:21.232Z,20.27
2023-01-29T05:45:55.021Z,21.30
2023-01-29T05:48:24.702Z,18.13
2023-01-29T05:50:51.956Z,17.92
2023-01-29T05:53:18.675Z,19.77
2023-01-29T05:55:47.138Z,22.13
2023-01-29T05:58:14.071Z,23.98
2023-01-29T06:00:41.621Z,19.52
2023-01-29T06:03:11.395Z,24.60
2023-01-29T06:05:39.308Z,24.35
2023-01-29T06:08:06.554Z,20.90
2023-01-29T06:10:33.725Z,20.27
2023-01-29T06:13:00.576Z,21.52
2023-01-29T06:15:27.566Z,22.65
2023-01-29T06:17:55.083Z,22.27
2023-01-29T06:20:23.921Z,21.17
2023-01-29T06:22:55.257Z,18.80
2023-01-29T06:25:21.931Z,20.20
2023-01-29T06:27:51.262Z,16.35
2023-01-29T06:30:18.381Z,19.48
2023-01-29T06:32:47.441Z,15.82
2023-01-29T06:35:14.114Z,19.98
2023-01-29T06:37:40.854Z,17.63
2023-01-29T06:40:08.266Z,17.73
2023-01-29T06:42:38.110Z,21.33
2023-01-29T06:45:05.163Z,17.83
2023-01-29T06:47:31.880Z,23.35
2023-01-29T06:49:58.634Z,23.38
2023-01-29T06:52:28.839Z,23.73
2023-01-29T06:54:58.839Z,21.40
2023-01-29T06:57:28.639Z,20.10
2023-01-29T06:59:55.314Z,23.05
2023-01-29T07:02:22.492Z,18.60
2023-01-29T07:04:49.181Z,19.67
2023-01-29T07:07:15.927Z,21.17
2023-01-29T07:09:45.879Z,21.10
2023-01-29T07:12:13.936Z,21.75
2023-01-29T07:14:40.615Z,21.98
2023-01-29T07:17:07.308Z,17.17
2023-01-29T07:19:34.129Z,16.88
2023-01-29T07:22:03.948Z,20.13
2023-01-29T07:24:30.764Z,20.17
2023-01-29T07:26:59.912Z,21.48
2023-01-29T07:29:26.863Z,20.10
2023-01-29T07:31:53.628Z,21.92
2023-01-29T07:34:20.470Z,23.27
2023-01-29T07:36:47.241Z,22.45
2023-01-29T07:39:14.034Z,26.00
2023-01-29T07:41:40.818Z,25.63
2023-01-29T07:44:10.136Z,28.05
2023-01-29T07:46:36.808Z,25.85
2023-01-29T07:49:08.196Z,21.42
2023-01-29T07:51:37.124Z,25.63
2023-01-29T07:54:03.940Z,21.90
2023-01-29T07:56:30.606Z,23.40
2023-01-29T07:58:57.269Z,29.65
2023-01-29T08:01:24.123Z,21.20
2023-01-29T08:03:51.496Z,25.08
2023-01-29T08:06:18.327Z,21.73
2023-01-29T08:08:44.999Z,21.77
2023-01-29T08:11:11.677Z,21.52
2023-01-29T08:13:38.439Z,22.42
2023-01-29T08:16:05.743Z,20.85
2023-01-29T08:18:32.585Z,22.02
2023-01-29T08:21:02.160Z,22.95
2023-01-29T08:23:31.154Z,24.05
2023-01-29T08:26:00.069Z,21.55
2023-01-29T08:28:29.245Z,23.92
2023-01-29T08:30:56.112Z,25.02
2023-01-29T08:33:29.670Z,21.88
2023-01-29T08:36:00.219Z,22.70
2023-01-29T08:38:29.304Z,22.13
2023-01-29T08:40:56.040Z,15.48
2023-01-29T08:43:22.774Z,15.20
2023-01-29T08:45:49.602Z,16.88
2023-01-29T08:48:16.412Z,16.73
2023-01-29T08:50:43.263Z,13.60
2023-01-29T08:53:10.118Z,14.95
2023-01-29T08:55:40.742Z,15.25
2023-01-29T08:58:10.000Z,13.52
2023-01-29T09:00:37.368Z,14.13
2023-01-29T09:03:04.943Z,15.00
2023-01-29T09:05:31.601Z,16.02
2023-01-29T09:07:58.715Z,12.52
2023-01-29T09:10:25.561Z,15.93
2023-01-29T09:12:52.320Z,13.88
2023-01-29T09:15:21.141Z,13.35
2023-01-29T09:17:49.399Z,13.35
2023-01-29T09:20:16.407Z,16.17
2023-01-29T09:22:46.013Z,14.38
2023-01-29T09:25:13.159Z,11.70
2023-01-29T09:27:40.019Z,15.05
2023-01-29T09:30:07.430Z,13.88
2023-01-29T09:32:52.665Z,14.60
2023-01-29T09:35:21.791Z,15.60
2023-01-29T09:37:51.962Z,10.60
2023-01-29T09:40:30.864Z,15.05
2023-01-29T09:43:10.219Z,13.20
2023-01-29T09:45:42.924Z,12.27
2023-01-29T09:48:12.076Z,15.25
2023-01-29T09:50:49.091Z,10.32
2023-01-29T09:53:18.944Z,12.60
2023-01-29T09:55:51.354Z,13.70
2023-01-29T09:58:25.391Z,11.02
2023-01-29T10:01:20.003Z,9.63
2023-01-29T10:04:09.414Z,11.10
2023-01-29T10:07:13.670Z,12.77
2023-01-29T10:10:07.597Z,11.00
2023-01-29T10:12:55.809Z,9.18
2023-01-29T10:15:43.635Z,12.63
2023-01-29T10:18:31.053Z,11.73
2023-01-29T10:21:22.652Z,13.35
2023-01-29T10:23:54.044Z,10.82
2023-01-29T10:26:26.317Z,9.05
2023-01-29T10:28:57.155Z,10.25
2023-01-29T10:31:34.285Z,10.05
2023-01-29T10:34:11.302Z,8.65
2023-01-29T10:36:50.852Z,9.98
2023-01-29T10:39:22.997Z,10.13
2023-01-29T10:42:24.063Z,11.60
2023-01-29T10:45:22.094Z,10.52
2023-01-29T10:48:14.025Z,12.27
2023-01-29T10:51:05.905Z,10.32
2023-01-29T10:53:49.031Z,12.70
2023-01-29T10:56:58.140Z,12.32
2023-01-29T11:00:00.555Z,9.88
2023-01-29T11:02:29.593Z,10.07
2023-01-29T11:04:58.477Z,10.25
2023-01-29T11:07:27.878Z,9.18
2023-01-29T11:10:02.571Z,8.73
2023-01-29T11:12:33.387Z,11.90
2023-01-29T11:15:15.344Z,9.25
2023-01-29T11:18:07.200Z,11.07
2023-01-29T11:20:36.624Z,9.07
2023-01-29T11:23:04.067Z,9.82
2023-01-29T11:25:32.725Z,9.55
2023-01-29T11:28:01.901Z,10.15
2023-01-29T11:30:38.181Z,10.77
2023-01-29T11:33:23.709Z,8.30
2023-01-29T11:35:52.511Z,9.50
2023-01-29T11:38:27.300Z,12.00
2023-01-29T11:41:06.123Z,11.60
2023-01-29T11:43:33.724Z,9.70
2023-01-29T11:46:05.111Z,10.20
2023-01-29T11:48:46.119Z,9.38
2023-01-29T11:51:26.073Z,7.82
2023-01-29T11:53:56.810Z,11.23
2023-01-29T11:56:34.160Z,8.68
2023-01-29T11:59:04.520Z,7.38
2023-01-29T12:01:36.234Z,8.38
2023-01-29T12:04:04.616Z,8.63
2023-01-29T12:06:37.550Z,9.15
2023-01-29T12:09:11.131Z,9.10
2023-01-29T12:11:38.310Z,7.88
2023-01-29T12:14:24.297Z,8.30
2023-01-29T12:17:13.728Z,7.57
2023-01-29T12:19:52.539Z,7.88
2023-01-29T12:22:43.813Z,9.13
2023-01-29T12:25:42.835Z,7.70
2023-01-29T12:28:40.240Z,8.05
2023-01-29T12:31:36.552Z,8.55
2023-01-29T12:34:30.658Z,6.53
2023-01-29T12:37:19.851Z,7.40
2023-01-29T12:39:46.974Z,7.57
2023-01-29T12:42:24.154Z,6.65
2023-01-29T12:44:56.582Z,11.30
2023-01-29T12:47:33.467Z,9.35
2023-01-29T12:50:26.349Z,6.45
2023-01-29T12:53:01.969Z,6.57
2023-01-29T12:55:33.587Z,7.18
2023-01-29T12:58:04.098Z,8.20
2023-01-29T13:00:37.545Z,9.52
2023-01-29T13:03:25.854Z,9.65
2023-01-29T13:06:44.510Z,7.68
2023-01-29T13:09:32.465Z,15.10
2023-01-29T13:12:11.169Z,5.75
2023-01-29T13:14:43.921Z,7.68
2023-01-29T13:17:21.595Z,8.48
2023-01-29T13:19:52.605Z,5.70
2023-01-29T13:22:30.305Z,7.88
2023-01-29T13:25:04.520Z,5.25
2023-01-29T13:27:41.313Z,8.13
2023-01-29T13:30:08.802Z,6.28
2023-01-29T13:32:36.352Z,6.90
2023-01-29T13:35:06.255Z,5.93
2023-01-29T13:37:48.820Z,5.85
2023-01-29T13:40:25.768Z,8.10
2023-01-29T13:42:54.490Z,7.18
2023-01-29T13:45:31.584Z,7.30
2023-01-29T13:48:27.434Z,8.45
2023-01-29T13:50:56.557Z,7.70
2023-01-29T13:53:27.662Z,9.55
2023-01-29T13:56:35.721Z,11.00
2023-01-29T13:59:06.696Z,9.38
2023-01-29T14:01:48.538Z,10.63
2023-01-29T14:04:30.600Z,9.27
2023-01-29T14:07:03.169Z,9.13
2023-01-29T14:09:56.114Z,9.65
2023-01-29T14:12:28.491Z,8.32
2023-01-29T14:14:57.933Z,8.48
2023-01-29T14:17:31.065Z,11.35
2023-01-29T14:20:18.695Z,10.48
2023-01-29T14:22:56.583Z,8.98
2023-01-29T14:25:30.016Z,9.52
2023-01-29T14:27:58.907Z,10.00
2023-01-29T14:30:32.206Z,8.43
2023-01-29T14:33:03.109Z,10.48
2023-01-29T14:35:33.243Z,11.00
2023-01-29T14:38:05.645Z,8.75
2023-01-29T14:40:33.148Z,9.02
2023-01-29T14:43:20.098Z,8.82
2023-01-29T14:45:48.888Z,9.00
2023-01-29T14:48:40.529Z,9.70
2023-01-29T14:51:17.437Z,9.77
2023-01-29T14:53:58.768Z,10.77
2023-01-29T14:56:34.329Z,9.05
2023-01-29T14:59:25.921Z,9.27
2023-01-29T15:01:58.078Z,10.68
2023-01-29T15:04:29.475Z,10.95
2023-01-29T15:07:06.830Z,9.57
2023-01-29T15:09:44.283Z,9.10
2023-01-29T15:12:54.447Z,9.30
2023-01-29T15:15:47.982Z,12.32
2023-01-29T15:18:23.600Z,11.77
2023-01-29T15:20:50.267Z,11.73
2023-01-29T15:23:28.677Z,11.02
2023-01-29T15:25:58.607Z,11.60
2023-01-29T15:28:29.255Z,11.30
2023-01-29T15:30:59.260Z,10.57
2023-01-29T15:33:27.327Z,10.43
2023-01-29T15:36:09.502Z,10.15
2023-01-29T15:38:36.414Z,10.20
2023-01-29T15:41:16.554Z,14.00
2023-01-29T15:43:46.651Z,14.25
2023-01-29T15:46:13.327Z,12.23
2023-01-29T15:48:46.231Z,10.73
2023-01-29T15:51:21.120Z,13.03
2023-01-29T15:53:56.255Z,12.40
2023-01-29T15:56:30.551Z,13.30
2023-01-29T15:59:00.574Z,12.20
2023-01-29T16:01:30.697Z,13.85
2023-01-29T16:04:02.552Z,13.05
2023-01-29T16:06:37.070Z,14.32
2023-01-29T16:09:07.548Z,13.63
2023-01-29T16:11:35.632Z,15.63
2023-01-29T16:14:06.496Z,17.08
2023-01-29T16:16:33.668Z,20.23
2023-01-29T16:19:01.476Z,19.05
2023-01-29T16:21:37.525Z,15.10
2023-01-29T16:24:13.988Z,9.48
2023-01-29T16:26:47.494Z,8.98
2023-01-29T16:29:18.554Z,7.93
2023-01-29T16:31:47.421Z,8.65
2023-01-29T16:34:19.653Z,10.25
2023-01-29T16:36:48.252Z,9.60
2023-01-29T16:39:20.831Z,11.95
2023-01-29T16:42:13.194Z,10.82
2023-01-29T16:44:41.157Z,12.02
2023-01-29T16:47:20.848Z,14.40
2023-01-29T16:49:57.005Z,13.73
2023-01-29T16:52:35.141Z,15.02
2023-01-29T16:55:20.110Z,14.07
2023-01-29T16:57:53.456Z,13.63
2023-01-29T17:00:27.808Z,14.18
2023-01-29T17:03:07.102Z,11.48
2023-01-29T17:05:36.951Z,14.50
2023-01-29T17:08:06.151Z,16.58
2023-01-29T17:10:34.003Z,16.90
2023-01-29T17:13:09.264Z,15.65
2023-01-29T17:15:46.963Z,16.13
2023-01-29T17:18:26.003Z,14.40
2023-01-29T17:20:53.266Z,21.95
2023-01-29T17:23:23.898Z,15.23
2023-01-29T17:25:51.881Z,17.50
2023-01-29T17:28:19.361Z,19.08
2023-01-29T17:30:56.696Z,15.82
2023-01-29T17:33:32.993Z,16.73
2023-01-29T17:36:00.147Z,15.00
2023-01-29T17:38:27.267Z,18.08
2023-01-29T17:41:12.637Z,16.42
2023-01-29T17:43:39.790Z,17.05
2023-01-29T17:46:14.306Z,18.73
2023-01-29T17:48:41.367Z,19.05
2023-01-29T17:51:14.732Z,19.38
2023-01-29T17:53:45.865Z,21.40
2023-01-29T17:56:31.087Z,20.45
2023-01-29T17:58:58.241Z,17.55
2023-01-29T18:01:30.241Z,15.85
2023-01-29T18:03:57.150Z,16.08
2023-01-29T18:06:30.817Z,17.88
2023-01-29T18:11:24.937Z,21.90
2023-01-29T18:13:54.257Z,15.30
2023-01-29T18:16:24.236Z,18.98
2023-01-29T18:18:51.989Z,25.38
2023-01-29T18:21:23.383Z,16.15
2023-01-29T18:23:50.179Z,19.25
2023-01-29T18:26:17.548Z,17.92
2023-01-29T18:28:44.309Z,21.75
2023-01-29T18:31:13.167Z,19.08
2023-01-29T18:33:40.697Z,19.05
2023-01-29T18:36:12.330Z,17.10
2023-01-29T18:38:39.261Z,19.40
2023-01-29T18:41:10.758Z,20.58
2023-01-29T18:43:38.699Z,18.27
2023-01-29T18:46:08.534Z,22.95
2023-01-29T18:48:37.854Z,21.52
2023-01-29T18:51:05.197Z,21.35
2023-01-29T18:53:33.383Z,23.60
2023-01-29T18:56:05.171Z,21.35
2023-01-29T18:58:36.082Z,20.77
2023-01-29T19:01:09.700Z,20.98
2023-01-29T19:03:39.148Z,19.15
2023-01-29T19:06:07.870Z,21.42
2023-01-29T19:08:35.330Z,18.17
2023-01-29T19:11:08.009Z,20.10
2023-01-29T19:13:40.820Z,19.77
2023-01-29T19:16:09.166Z,19.97
2023-01-29T19:18:38.716Z,21.52
2023-01-29T19:21:13.146Z,18.95
2023-01-29T19:23:41.148Z,19.42
2023-01-29T19:26:08.696Z,19.33
2023-01-29T19:28:35.833Z,17.80
2023-01-29T19:31:04.869Z,21.00
2023-01-29T19:33:31.724Z,20.10
2023-01-29T19:35:59.668Z,22.35
2023-01-29T19:38:28.952Z,19.48
2023-01-29T19:40:57.901Z,19.00
2023-01-29T19:43:27.820Z,20.25
2023-01-29T19:45:58.871Z,18.45
2023-01-29T19:48:26.519Z,21.40
2023-01-29T19:50:57.362Z,18.75
2023-01-29T19:53:27.567Z,20.30
2023-01-29T19:56:12.184Z,20.58
2023-01-29T19:58:39.099Z,20.48
2023-01-29T20:01:15.146Z,23.27
2023-01-29T20:03:42.146Z,23.48
2023-01-29T20:06:09.640Z,19.90
2023-01-29T20:08:39.044Z,21.35
2023-01-29T20:11:05.764Z,20.73
2023-01-29T20:13:33.369Z,20.48
2023-01-29T20:16:03.924Z,20.98
2023-01-29T20:18:31.470Z,20.13
2023-01-29T20:20:58.553Z,23.52
2023-01-29T20:23:37.055Z,20.17
2023-01-29T20:26:04.689Z,22.67
2023-01-29T20:28:31.467Z,20.42
2023-01-29T20:30:59.048Z,22.02
2023-01-29T20:33:26.654Z,21.08
2023-01-29T20:35:59.815Z,21.70
2023-01-29T20:38:33.902Z,25.73
2023-01-29T20:41:13.922Z,27.13
2023-01-29T20:43:43.473Z,19.42
2023-01-29T20:46:10.848Z,22.80
2023-01-29T20:48:37.921Z,20.98
2023-01-29T20:51:15.684Z,22.38
2023-01-29T20:53:46.399Z,23.02
2023-01-29T20:56:14.708Z,24.45
2023-01-29T20:58:41.935Z,26.60
2023-01-29T21:01:16.672Z,23.88
2023-01-29T21:03:46.342Z,28.58
2023-01-29T21:06:14.023Z,25.40
2023-01-29T21:08:41.027Z,25.50
2023-01-29T21:11:09.082Z,25.63
2023-01-29T21:13:36.244Z,27.33
2023-01-29T21:16:05.600Z,29.45
2023-01-29T21:18:34.564Z,25.52
2023-01-29T21:21:01.252Z,25.25
2023-01-29T21:23:28.030Z,24.20
2023-01-29T21:26:03.753Z,25.17
2023-01-29T21:28:30.500Z,28.25
2023-01-29T21:31:05.628Z,24.95
2023-01-29T21:33:33.609Z,26.85
2023-01-29T21:36:00.698Z,24.58
2023-01-29T21:38:29.972Z,23.25
2023-01-29T21:41:01.961Z,27.88
2023-01-29T21:43:28.969Z,24.27
2023-01-29T21:46:03.914Z,23.25
2023-01-29T21:48:31.061Z,21.65
2023-01-29T21:50:57.756Z,25.60
2023-01-29T21:53:24.501Z,24.08
2023-01-29T21:55:53.354Z,30.00
2023-01-29T21:58:20.681Z,24.88
2023-01-29T22:00:48.880Z,27.77
2023-01-29T22:03:15.856Z,22.35
2023-01-29T22:05:44.774Z,23.73
2023-01-29T22:08:11.534Z,26.58
2023-01-29T22:10:40.798Z,26.63
2023-01-29T22:13:07.715Z,25.33
2023-01-29T22:15:34.625Z,24.17
2023-01-29T22:18:01.272Z,23.27
2023-01-29T22:20:30.605Z,23.98
2023-01-29T22:23:00.200Z,25.85
2023-01-29T22:25:29.925Z,25.98
2023-01-29T22:27:59.171Z,27.55
2023-01-29T22:30:25.902Z,28.52
2023-01-29T22:32:54.813Z,23.95
2023-01-29T22:35:21.612Z,27.05
2023-01-29T22:37:50.745Z,27.38
2023-01-29T22:40:17.894Z,29.25
2023-01-29T22:42:44.780Z,27.05
2023-01-29T22:45:14.548Z,28.77
2023-01-29T22:47:41.342Z,28.48
2023-01-29T22:50:10.986Z,28.30
2023-01-29T22:52:42.400Z,28.17
2023-01-29T22:55:11.120Z,28.48
2023-01-29T22:57:40.687Z,24.67
2023-01-29T23:00:11.849Z,36.10
2023-01-29T23:02:38.524Z,28.42
2023-01-29T23:05:05.726Z,30.55
2023-01-29T23:07:32.424Z,28.20
2023-01-29T23:09:59.244Z,31.98
2023-01-29T23:12:26.059Z,32.10
2023-01-29T23:14:52.690Z,33.13
2023-01-29T23:17:19.534Z,33.40
2023-01-29T23:19:46.148Z,31.27
2023-01-29T23:22:12.998Z,33.25
2023-01-29T23:24:39.684Z,32.45
2023-01-29T23:27:15.559Z,33.72
2023-01-29T23:29:44.303Z,33.05
2023-01-29T23:32:12.758Z,32.47
2023-01-29T23:34:39.566Z,35.08
2023-01-29T23:37:06.882Z,36.88
2023-01-29T23:39:33.892Z,37.22
2023-01-29T23:42:01.081Z,33.88
2023-01-29T23:44:30.598Z,30.45
2023-01-29T23:46:58.125Z,31.63
2023-01-29T23:49:24.813Z,35.08
2023-01-29T23:51:51.607Z,36.50
2023-01-29T23:54:18.559Z,35.03
2023-01-29T23:56:45.631Z,39.10
2023-01-29T23:59:12.658Z,37.35
